createdAt,value
2023-02-12T00:00:21.762Z,3.98
2023-02-12T00:05:23.412Z,3.64
2023-02-12T00:10:25.462Z,3.63
2023-02-12T00:15:27.029Z,3.60
2023-02-12T00:20:28.484Z,3.62
2023-02-12T00:25:30.121Z,3.56
2023-02-12T00:30:31.606Z,3.35
2023-02-12T00:35:34.281Z,3.30
2023-02-12T00:40:35.773Z,3.26
2023-02-12T00:45:37.686Z,3.25
2023-02-12T00:50:39.385Z,3.28
2023-02-12T00:55:41.442Z,3.33
2023-02-12T01:00:43.743Z,3.42
2023-02-12T01:05:45.251Z,3.42
2023-02-12T01:10:55.965Z,3.46
2023-02-12T01:16:27.138Z,3.35
2023-02-12T01:21:31.258Z,3.36
2023-02-12T01:26:33.412Z,3.32
2023-02-12T01:31:38.407Z,3.33
2023-02-12T01:36:40.041Z,3.21
2023-02-12T01:41:44.318Z,3.11
2023-02-12T01:46:58.493Z,3.14
2023-02-12T01:52:28.311Z,3.15
2023-02-12T01:57:32.925Z,3.22
2023-02-12T02:02:34.999Z,3.25
2023-02-12T02:07:36.575Z,3.12
2023-02-12T02:12:39.620Z,3.14
2023-02-12T02:17:52.454Z,2.95
2023-02-12T02:23:06.164Z,2.90
2023-02-12T02:28:45.844Z,2.89
2023-02-12T02:34:07.953Z,2.86
2023-02-12T02:39:28.393Z,2.86
2023-02-12T02:44:37.762Z,2.93
2023-02-12T02:49:45.821Z,2.80
2023-02-12T02:54:56.303Z,2.85
2023-02-12T03:00:12.800Z,2.70
2023-02-12T03:05:27.405Z,2.58
2023-02-12T03:10:34.443Z,2.42
2023-02-12T03:15:41.515Z,2.37
2023-02-12T03:20:48.651Z,2.49
2023-02-12T03:25:57.819Z,2.39
2023-02-12T03:31:11.925Z,2.47
2023-02-12T03:36:26.125Z,2.63
2023-02-12T03:41:34.462Z,2.49
2023-02-12T03:46:51.277Z,2.47
2023-02-12T03:51:52.814Z,2.44
2023-02-12T03:57:00.740Z,2.44
2023-02-12T04:02:02.581Z,2.59
2023-02-12T04:07:04.511Z,2.36
2023-02-12T04:12:17.845Z,2.24
2023-02-12T04:17:26.375Z,2.19
2023-02-12T04:22:54.568Z,2.28
2023-02-12T04:28:11.045Z,2.23
2023-02-12T04:33:18.163Z,2.25
2023-02-12T04:38:25.881Z,2.23
2023-02-12T04:43:34.766Z,2.18
2023-02-12T04:48:53.547Z,2.10
2023-02-12T04:53:55.006Z,2.17
2023-02-12T04:58:56.457Z,2.23
2023-02-12T05:03:57.969Z,2.17
2023-02-12T05:08:59.519Z,2.01
2023-02-12T05:14:01.090Z,2.02
2023-02-12T05:19:02.646Z,1.90
2023-02-12T05:24:04.746Z,1.78
2023-02-12T05:29:06.222Z,1.74
2023-02-12T05:34:10.938Z,1.71
2023-02-12T05:39:12.457Z,1.73
2023-02-12T05:44:14.002Z,1.85
2023-02-12T05:49:15.620Z,1.87
2023-02-12T05:54:17.159Z,1.91
2023-02-12T05:59:22.129Z,1.95
2023-02-12T06:04:27.140Z,1.92
2023-02-12T06:09:28.603Z,1.90
2023-02-12T06:14:31.899Z,1.83
2023-02-12T06:19:34.085Z,1.81
2023-02-12T06:24:35.581Z,1.86
2023-02-12T06:29:37.040Z,1.90
2023-02-12T06:34:38.482Z,1.96
2023-02-12T06:39:39.927Z,1.99
2023-02-12T06:44:41.372Z,1.93
2023-02-12T06:49:42.873Z,2.11
2023-02-12T06:54:44.322Z,1.98
2023-02-12T06:59:45.826Z,1.97
2023-02-12T07:04:47.384Z,1.98
2023-02-12T07:09:49.015Z,2.02
2023-02-12T07:14:50.485Z,1.88
2023-02-12T07:19:51.996Z,1.98
2023-02-12T07:24:53.463Z,2.00
2023-02-12T07:29:54.988Z,2.07
2023-02-12T07:34:56.521Z,2.19
2023-02-12T07:39:59.079Z,2.22
2023-02-12T07:45:00.587Z,2.39
2023-02-12T07:50:02.083Z,2.55
2023-02-12T07:55:03.581Z,2.81
2023-02-12T08:00:05.983Z,3.06
2023-02-12T08:05:13.561Z,3.41
2023-02-12T08:10:15.236Z,3.70
2023-02-12T08:15:19.511Z,4.03
2023-02-12T08:20:20.985Z,4.20
2023-02-12T08:25:22.474Z,4.25
2023-02-12T08:30:23.927Z,4.64
2023-02-12T08:35:25.386Z,4.80
2023-02-12T08:40:26.912Z,5.03
2023-02-12T08:45:28.390Z,5.30
2023-02-12T08:50:29.866Z,5.54
2023-02-12T08:55:31.337Z,5.71
2023-02-12T09:00:32.796Z,5.97
2023-02-12T09:05:38.707Z,6.22
2023-02-12T09:10:44.481Z,6.42
2023-02-12T09:15:46.155Z,6.70
2023-02-12T09:20:47.680Z,7.11
2023-02-12T09:25:49.413Z,7.24
2023-02-12T09:30:50.989Z,7.56
2023-02-12T09:35:52.606Z,7.81
2023-02-12T09:40:54.004Z,8.18
2023-02-12T09:46:05.216Z,8.46
2023-02-12T09:51:09.829Z,8.89
2023-02-12T09:56:14.349Z,9.20
2023-02-12T10:01:19.092Z,9.34
2023-02-12T10:06:29.125Z,9.61
2023-02-12T10:11:44.123Z,9.91
2023-02-12T10:17:07.036Z,10.19
2023-02-12T10:22:23.236Z,10.60
2023-02-12T10:27:39.345Z,10.96
2023-02-12T10:32:44.478Z,11.53
2023-02-12T10:37:52.826Z,11.88
2023-02-12T10:42:54.572Z,12.44
2023-02-12T10:48:09.153Z,13.06
2023-02-12T10:53:32.773Z,13.89
2023-02-12T10:58:34.251Z,15.26
2023-02-12T11:03:35.775Z,16.75
2023-02-12T11:08:37.884Z,17.37
2023-02-12T11:14:05.987Z,17.55
2023-02-12T11:19:19.552Z,17.13
2023-02-12T11:24:32.214Z,16.94
2023-02-12T11:29:33.778Z,17.42
2023-02-12T11:34:36.182Z,18.94
2023-02-12T11:39:40.873Z,21.29
2023-02-12T11:44:52.884Z,23.50
2023-02-12T11:50:05.353Z,23.85
2023-02-12T11:55:20.011Z,24.58
2023-02-12T12:00:38.613Z,25.56
2023-02-12T12:05:48.428Z,26.21
2023-02-12T12:11:00.621Z,26.52
2023-02-12T12:16:13.044Z,26.46
2023-02-12T12:21:30.827Z,26.65
2023-02-12T12:26:34.747Z,26.77
2023-02-12T12:31:42.957Z,26.54
2023-02-12T12:37:06.201Z,27.42
2023-02-12T12:42:44.524Z,27.56
2023-02-12T12:48:11.769Z,27.19
2023-02-12T12:53:31.615Z,27.12
2023-02-12T12:59:03.169Z,26.90
2023-02-12T13:04:16.725Z,27.13
2023-02-12T13:09:32.986Z,26.88
2023-02-12T13:14:47.535Z,26.37
2023-02-12T13:20:12.921Z,25.83
2023-02-12T13:25:40.019Z,25.56
2023-02-12T13:30:51.570Z,24.93
2023-02-12T13:35:58.325Z,24.09
2023-02-12T13:41:04.625Z,23.42
2023-02-12T13:46:21.423Z,23.38
2023-02-12T13:52:12.196Z,22.37
2023-02-12T13:57:17.100Z,21.72
2023-02-12T14:02:18.580Z,20.97
2023-02-12T14:07:21.487Z,20.22
2023-02-12T14:12:26.036Z,19.72
2023-02-12T14:17:30.291Z,19.74
2023-02-12T14:22:31.684Z,19.28
2023-02-12T14:27:36.073Z,19.16
2023-02-12T14:32:52.564Z,18.86
2023-02-12T14:37:56.453Z,18.43
2023-02-12T14:42:57.961Z,18.31
2023-02-12T14:47:59.674Z,18.03
2023-02-12T14:53:13.138Z,18.06
2023-02-12T14:58:22.295Z,17.72
2023-02-12T15:03:30.228Z,17.70
2023-02-12T15:08:47.490Z,17.46
2023-02-12T15:13:55.418Z,17.05
2023-02-12T15:19:03.916Z,17.06
2023-02-12T15:24:07.629Z,16.98
2023-02-12T15:29:21.056Z,16.68
2023-02-12T15:34:27.508Z,16.68
2023-02-12T15:39:41.074Z,16.57
2023-02-12T15:44:42.603Z,16.25
2023-02-12T15:49:44.239Z,16.05
2023-02-12T15:54:47.254Z,15.84
2023-02-12T15:59:54.052Z,15.76
2023-02-12T16:04:57.034Z,15.70
2023-02-12T16:09:58.754Z,15.13
2023-02-12T16:15:00.502Z,15.11
2023-02-12T16:20:17.209Z,14.80
2023-02-12T16:25:31.508Z,14.32
2023-02-12T16:30:43.439Z,13.94
2023-02-12T16:35:44.943Z,13.64
2023-02-12T16:41:18.117Z,13.41
2023-02-12T16:46:20.288Z,12.89
2023-02-12T16:51:30.836Z,12.88
2023-02-12T16:56:36.058Z,12.70
2023-02-12T17:01:37.530Z,12.69
2023-02-12T17:06:39.059Z,12.44
2023-02-12T17:11:40.567Z,12.03
2023-02-12T17:16:42.139Z,11.91
2023-02-12T17:21:46.232Z,11.91
2023-02-12T17:26:48.849Z,11.99
2023-02-12T17:31:51.012Z,11.77
2023-02-12T17:36:52.775Z,11.80
2023-02-12T17:41:54.321Z,11.52
2023-02-12T17:46:55.861Z,11.30
2023-02-12T17:51:57.429Z,10.77
2023-02-12T17:56:59.017Z,10.88
2023-02-12T18:02:00.568Z,10.75
2023-02-12T18:07:03.836Z,10.42
2023-02-12T18:12:06.131Z,10.23
2023-02-12T18:17:07.642Z,10.05
2023-02-12T18:22:09.117Z,9.95
2023-02-12T18:27:11.886Z,9.73
2023-02-12T18:32:13.458Z,9.66
2023-02-12T18:37:15.053Z,9.30
2023-02-12T18:42:16.557Z,9.29
2023-02-12T18:47:19.598Z,9.21
2023-02-12T18:52:24.524Z,9.08
2023-02-12T18:57:26.074Z,8.95
2023-02-12T19:02:27.559Z,8.95
2023-02-12T19:07:29.145Z,8.73
2023-02-12T19:12:30.838Z,8.64
2023-02-12T19:17:33.358Z,8.55
2023-02-12T19:22:35.630Z,8.54
2023-02-12T19:27:37.141Z,8.49
2023-02-12T19:32:38.672Z,8.25
2023-02-12T19:37:40.194Z,8.12
2023-02-12T19:42:41.778Z,8.21
2023-02-12T19:47:43.323Z,8.25
2023-02-12T19:52:44.758Z,7.83
2023-02-12T19:57:46.269Z,7.83
2023-02-12T20:02:47.905Z,7.69
2023-02-12T20:07:49.458Z,7.61
2023-02-12T20:12:50.968Z,7.58
2023-02-12T20:17:52.490Z,7.56
2023-02-12T20:22:54.029Z,7.41
2023-02-12T20:27:55.582Z,7.31
2023-02-12T20:32:57.099Z,7.09
2023-02-12T20:37:58.588Z,7.10
2023-02-12T20:43:00.271Z,7.08
2023-02-12T20:48:01.760Z,7.01
2023-02-12T20:53:03.471Z,7.09
2023-02-12T20:58:05.064Z,6.96
2023-02-12T21:03:06.659Z,7.01
2023-02-12T21:08:08.161Z,6.72
2023-02-12T21:13:09.701Z,6.63
2023-02-12T21:18:11.228Z,6.51
2023-02-12T21:23:12.719Z,6.44
2023-02-12T21:28:14.221Z,6.42
2023-02-12T21:33:15.746Z,6.38
2023-02-12T21:38:17.191Z,6.29
2023-02-12T21:43:18.662Z,6.35
2023-02-12T21:48:20.101Z,6.40
2023-02-12T21:53:21.611Z,6.62
2023-02-12T21:58:23.417Z,6.64
2023-02-12T22:03:24.908Z,6.77
2023-02-12T22:08:26.377Z,6.80
2023-02-12T22:13:28.997Z,6.53
2023-02-12T22:18:30.475Z,6.72
2023-02-12T22:23:32.881Z,6.80
2023-02-12T22:28:39.137Z,6.87
2023-02-12T22:33:40.712Z,6.54
2023-02-12T22:38:42.209Z,6.42
2023-02-12T22:43:43.763Z,6.78
2023-02-12T22:48:46.198Z,6.97
2023-02-12T22:53:47.792Z,7.03
2023-02-12T22:58:54.702Z,6.96
2023-02-12T23:03:56.844Z,6.93
2023-02-12T23:09:01.636Z,6.84
2023-02-12T23:14:03.161Z,6.83
2023-02-12T23:19:04.672Z,7.00
2023-02-12T23:24:06.619Z,7.02
2023-02-12T23:29:08.416Z,6.79
2023-02-12T23:34:09.925Z,7.00
2023-02-12T23:39:12.534Z,7.23
2023-02-12T23:44:14.001Z,7.21
2023-02-12T23:49:15.464Z,7.03
2023-02-12T23:54:16.967Z,6.86
2023-02-12T23:59:18.569Z,6.67
